sensor_id;sensor_type;location;lat;lon;timestamp;P1;durP1;ratioP1;P2;durP2;ratioP2
48516;SDS011;34310;51.904;4.256;2023-11-19T00:02:19;16.67;;;9.43;;
48516;SDS011;34310;51.904;4.256;2023-11-19T00:04:46;14.93;;;9.57;;
48516;SDS011;34310;51.904;4.256;2023-11-19T00:07:12;16.52;;;10.23;;
48516;SDS011;34310;51.904;4.256;2023-11-19T00:09:39;18.77;;;9.65;;
48516;SDS011;34310;51.904;4.256;2023-11-19T00:12:06;17.27;;;9.48;;
48516;SDS011;34310;51.904;4.256;2023-11-19T00:14:33;16.38;;;9.93;;
48516;SDS011;34310;51.904;4.256;2023-11-19T00:17:00;16.70;;;9.30;;
48516;SDS011;34310;51.904;4.256;2023-11-19T00:19:26;16.67;;;10.15;;
48516;SDS011;34310;51.904;4.256;2023-11-19T00:21:53;16.33;;;9.10;;
48516;SDS011;34310;51.904;4.256;2023-11-19T00:24:19;17.52;;;10.18;;
48516;SDS011;34310;51.904;4.256;2023-11-19T00:26:46;18.17;;;9.38;;
48516;SDS011;34310;51.904;4.256;2023-11-19T00:29:13;16.58;;;9.90;;
48516;SDS011;34310;51.904;4.256;2023-11-19T00:31:39;18.08;;;9.68;;
48516;SDS011;34310;51.904;4.256;2023-11-19T00:34:06;19.77;;;9.30;;
48516;SDS011;34310;51.904;4.256;2023-11-19T00:36:33;18.95;;;9.80;;
48516;SDS011;34310;51.904;4.256;2023-11-19T00:38:59;18.15;;;9.10;;
48516;SDS011;34310;51.904;4.256;2023-11-19T00:41:25;15.73;;;9.27;;
48516;SDS011;34310;51.904;4.256;2023-11-19T00:43:52;16.80;;;9.15;;
48516;SDS011;34310;51.904;4.256;2023-11-19T00:46:18;15.75;;;9.50;;
48516;SDS011;34310;51.904;4.256;2023-11-19T00:48:45;16.65;;;8.90;;
48516;SDS011;34310;51.904;4.256;2023-11-19T00:51:11;17.92;;;9.23;;
48516;SDS011;34310;51.904;4.256;2023-11-19T00:53:38;19.88;;;9.43;;
48516;SDS011;34310;51.904;4.256;2023-11-19T00:56:05;15.43;;;8.88;;
48516;SDS011;34310;51.904;4.256;2023-11-19T00:58:31;16.15;;;8.85;;
48516;SDS011;34310;51.904;4.256;2023-11-19T01:00:58;17.63;;;8.85;;
48516;SDS011;34310;51.904;4.256;2023-11-19T01:03:24;14.60;;;8.20;;
48516;SDS011;34310;51.904;4.256;2023-11-19T01:05:51;16.60;;;8.50;;
48516;SDS011;34310;51.904;4.256;2023-11-19T01:08:17;17.30;;;8.63;;
48516;SDS011;34310;51.904;4.256;2023-11-19T01:10:44;14.10;;;8.55;;
48516;SDS011;34310;51.904;4.256;2023-11-19T01:13:10;18.05;;;8.85;;
48516;SDS011;34310;51.904;4.256;2023-11-19T01:15:37;16.25;;;8.52;;
48516;SDS011;34310;51.904;4.256;2023-11-19T01:18:03;16.33;;;8.18;;
48516;SDS011;34310;51.904;4.256;2023-11-19T01:20:30;14.73;;;8.25;;
48516;SDS011;34310;51.904;4.256;2023-11-19T01:22:56;15.75;;;7.85;;
48516;SDS011;34310;51.904;4.256;2023-11-19T01:25:23;17.75;;;8.10;;
48516;SDS011;34310;51.904;4.256;2023-11-19T01:27:49;16.27;;;7.75;;
48516;SDS011;34310;51.904;4.256;2023-11-19T01:30:16;16.67;;;7.63;;
48516;SDS011;34310;51.904;4.256;2023-11-19T01:32:43;18.30;;;8.55;;
48516;SDS011;34310;51.904;4.256;2023-11-19T01:35:09;14.98;;;7.72;;
48516;SDS011;34310;51.904;4.256;2023-11-19T01:37:36;15.93;;;8.38;;
48516;SDS011;34310;51.904;4.256;2023-11-19T01:40:03;16.55;;;8.15;;
48516;SDS011;34310;51.904;4.256;2023-11-19T01:42:29;17.90;;;7.63;;
48516;SDS011;34310;51.904;4.256;2023-11-19T01:44:59;17.50;;;7.63;;
48516;SDS011;34310;51.904;4.256;2023-11-19T01:47:30;17.20;;;7.90;;
48516;SDS011;34310;51.904;4.256;2023-11-19T01:49:57;15.45;;;7.72;;
48516;SDS011;34310;51.904;4.256;2023-11-19T01:52:25;20.20;;;8.02;;
48516;SDS011;34310;51.904;4.256;2023-11-19T01:54:52;15.88;;;6.97;;
48516;SDS011;34310;51.904;4.256;2023-11-19T01:57:21;17.73;;;7.97;;
48516;SDS011;34310;51.904;4.256;2023-11-19T01:59:52;16.13;;;7.70;;
48516;SDS011;34310;51.904;4.256;2023-11-19T02:02:19;20.40;;;7.57;;
48516;SDS011;34310;51.904;4.256;2023-11-19T02:04:47;16.05;;;7.30;;
48516;SDS011;34310;51.904;4.256;2023-11-19T02:07:16;16.25;;;7.20;;
48516;SDS011;34310;51.904;4.256;2023-11-19T02:09:43;14.10;;;6.95;;
48516;SDS011;34310;51.904;4.256;2023-11-19T02:12:10;13.32;;;6.95;;
48516;SDS011;34310;51.904;4.256;2023-11-19T02:14:37;16.80;;;7.22;;
48516;SDS011;34310;51.904;4.256;2023-11-19T02:17:03;16.20;;;6.57;;
48516;SDS011;34310;51.904;4.256;2023-11-19T02:19:30;15.70;;;7.07;;
48516;SDS011;34310;51.904;4.256;2023-11-19T02:21:56;15.63;;;6.38;;
48516;SDS011;34310;51.904;4.256;2023-11-19T02:24:23;17.35;;;7.18;;
48516;SDS011;34310;51.904;4.256;2023-11-19T02:27:02;16.90;;;6.90;;
48516;SDS011;34310;51.904;4.256;2023-11-19T02:29:36;13.85;;;6.97;;
48516;SDS011;34310;51.904;4.256;2023-11-19T02:32:03;17.15;;;6.88;;
48516;SDS011;34310;51.904;4.256;2023-11-19T02:34:30;16.88;;;6.78;;
48516;SDS011;34310;51.904;4.256;2023-11-19T02:36:56;15.25;;;6.10;;
48516;SDS011;34310;51.904;4.256;2023-11-19T02:39:23;18.52;;;7.15;;
48516;SDS011;34310;51.904;4.256;2023-11-19T02:41:49;18.45;;;6.78;;
48516;SDS011;34310;51.904;4.256;2023-11-19T02:44:16;13.48;;;6.10;;
48516;SDS011;34310;51.904;4.256;2023-11-19T02:46:43;14.13;;;5.75;;
48516;SDS011;34310;51.904;4.256;2023-11-19T02:49:09;15.45;;;6.30;;
48516;SDS011;34310;51.904;4.256;2023-11-19T02:51:36;16.85;;;6.18;;
48516;SDS011;34310;51.904;4.256;2023-11-19T02:54:02;15.77;;;5.93;;
48516;SDS011;34310;51.904;4.256;2023-11-19T02:56:29;18.70;;;6.38;;
48516;SDS011;34310;51.904;4.256;2023-11-19T02:58:55;15.00;;;5.78;;
48516;SDS011;34310;51.904;4.256;2023-11-19T03:01:22;17.98;;;6.10;;
48516;SDS011;34310;51.904;4.256;2023-11-19T03:03:52;15.50;;;6.15;;
48516;SDS011;34310;51.904;4.256;2023-11-19T03:06:18;14.35;;;5.40;;
48516;SDS011;34310;51.904;4.256;2023-11-19T03:08:45;16.83;;;6.22;;
48516;SDS011;34310;51.904;4.256;2023-11-19T03:11:11;15.90;;;5.90;;
48516;SDS011;34310;51.904;4.256;2023-11-19T03:13:37;15.70;;;5.65;;
48516;SDS011;34310;51.904;4.256;2023-11-19T03:16:04;15.23;;;5.75;;
48516;SDS011;34310;51.904;4.256;2023-11-19T03:18:31;16.48;;;5.88;;
48516;SDS011;34310;51.904;4.256;2023-11-19T03:20:57;13.52;;;5.28;;
48516;SDS011;34310;51.904;4.256;2023-11-19T03:23:24;14.10;;;5.20;;
48516;SDS011;34310;51.904;4.256;2023-11-19T03:25:51;17.35;;;5.55;;
48516;SDS011;34310;51.904;4.256;2023-11-19T03:28:17;16.23;;;5.97;;
48516;SDS011;34310;51.904;4.256;2023-11-19T03:30:44;16.83;;;5.85;;
48516;SDS011;34310;51.904;4.256;2023-11-19T03:33:10;15.98;;;5.28;;
48516;SDS011;34310;51.904;4.256;2023-11-19T03:35:37;15.70;;;5.00;;
48516;SDS011;34310;51.904;4.256;2023-11-19T03:38:03;14.55;;;5.28;;
48516;SDS011;34310;51.904;4.256;2023-11-19T03:40:30;15.73;;;5.53;;
48516;SDS011;34310;51.904;4.256;2023-11-19T03:42:56;14.40;;;5.43;;
48516;SDS011;34310;51.904;4.256;2023-11-19T03:45:23;13.95;;;5.32;;
48516;SDS011;34310;51.904;4.256;2023-11-19T03:47:50;13.00;;;4.55;;
48516;SDS011;34310;51.904;4.256;2023-11-19T03:50:17;11.88;;;4.78;;
48516;SDS011;34310;51.904;4.256;2023-11-19T03:52:43;13.57;;;5.03;;
48516;SDS011;34310;51.904;4.256;2023-11-19T03:55:10;15.18;;;4.63;;
48516;SDS011;34310;51.904;4.256;2023-11-19T03:57:36;15.35;;;5.05;;
48516;SDS011;34310;51.904;4.256;2023-11-19T04:00:03;15.02;;;5.10;;
48516;SDS011;34310;51.904;4.256;2023-11-19T04:02:30;14.68;;;5.07;;
48516;SDS011;34310;51.904;4.256;2023-11-19T04:04:56;12.70;;;4.78;;
48516;SDS011;34310;51.904;4.256;2023-11-19T04:07:23;13.00;;;4.55;;
48516;SDS011;34310;51.904;4.256;2023-11-19T04:09:49;15.57;;;5.32;;
48516;SDS011;34310;51.904;4.256;2023-11-19T04:12:16;14.10;;;4.97;;
48516;SDS011;34310;51.904;4.256;2023-11-19T04:14:42;16.17;;;4.70;;
48516;SDS011;34310;51.904;4.256;2023-11-19T04:17:09;15.98;;;4.80;;
48516;SDS011;34310;51.904;4.256;2023-11-19T04:19:35;13.73;;;4.82;;
48516;SDS011;34310;51.904;4.256;2023-11-19T04:22:02;12.75;;;4.53;;
48516;SDS011;34310;51.904;4.256;2023-11-19T04:24:28;15.27;;;5.35;;
48516;SDS011;34310;51.904;4.256;2023-11-19T04:26:55;14.63;;;4.82;;
48516;SDS011;34310;51.904;4.256;2023-11-19T04:29:21;15.93;;;4.68;;
48516;SDS011;34310;51.904;4.256;2023-11-19T04:31:48;18.65;;;4.80;;
48516;SDS011;34310;51.904;4.256;2023-11-19T04:34:14;14.15;;;5.13;;
48516;SDS011;34310;51.904;4.256;2023-11-19T04:36:41;15.30;;;4.70;;
48516;SDS011;34310;51.904;4.256;2023-11-19T04:39:07;14.90;;;4.85;;
48516;SDS011;34310;51.904;4.256;2023-11-19T04:41:34;13.70;;;4.35;;
48516;SDS011;34310;51.904;4.256;2023-11-19T04:44:00;12.43;;;4.30;;
48516;SDS011;34310;51.904;4.256;2023-11-19T04:46:26;12.15;;;4.07;;
48516;SDS011;34310;51.904;4.256;2023-11-19T04:48:53;16.40;;;4.93;;
48516;SDS011;34310;51.904;4.256;2023-11-19T04:51:19;9.70;;;3.88;;
48516;SDS011;34310;51.904;4.256;2023-11-19T04:53:46;12.25;;;3.78;;
48516;SDS011;34310;51.904;4.256;2023-11-19T04:56:12;15.80;;;4.63;;
48516;SDS011;34310;51.904;4.256;2023-11-19T04:58:39;15.73;;;4.38;;
48516;SDS011;34310;51.904;4.256;2023-11-19T05:01:05;15.30;;;4.90;;
48516;SDS011;34310;51.904;4.256;2023-11-19T05:03:32;18.05;;;4.60;;
48516;SDS011;34310;51.904;4.256;2023-11-19T05:05:59;14.18;;;5.07;;
48516;SDS011;34310;51.904;4.256;2023-11-19T05:08:25;12.90;;;4.35;;
48516;SDS011;34310;51.904;4.256;2023-11-19T05:10:52;13.98;;;3.97;;
48516;SDS011;34310;51.904;4.256;2023-11-19T05:13:18;17.58;;;4.20;;
48516;SDS011;34310;51.904;4.256;2023-11-19T05:15:45;14.07;;;4.13;;
48516;SDS011;34310;51.904;4.256;2023-11-19T05:18:11;11.93;;;4.00;;
48516;SDS011;34310;51.904;4.256;2023-11-19T05:20:38;14.52;;;4.38;;
48516;SDS011;34310;51.904;4.256;2023-11-19T05:23:04;14.05;;;4.03;;
48516;SDS011;34310;51.904;4.256;2023-11-19T05:25:31;14.95;;;3.85;;
48516;SDS011;34310;51.904;4.256;2023-11-19T05:27:57;17.13;;;4.70;;
48516;SDS011;34310;51.904;4.256;2023-11-19T05:30:24;11.05;;;4.03;;
48516;SDS011;34310;51.904;4.256;2023-11-19T05:32:50;12.10;;;3.63;;
48516;SDS011;34310;51.904;4.256;2023-11-19T05:35:17;10.93;;;4.00;;
48516;SDS011;34310;51.904;4.256;2023-11-19T05:37:43;15.85;;;3.95;;
48516;SDS011;34310;51.904;4.256;2023-11-19T05:40:10;18.30;;;4.43;;
48516;SDS011;34310;51.904;4.256;2023-11-19T05:42:37;15.75;;;4.38;;
48516;SDS011;34310;51.904;4.256;2023-11-19T05:45:03;16.25;;;4.40;;
48516;SDS011;34310;51.904;4.256;2023-11-19T05:47:30;16.40;;;4.50;;
48516;SDS011;34310;51.904;4.256;2023-11-19T05:49:57;13.15;;;3.97;;
48516;SDS011;34310;51.904;4.256;2023-11-19T05:52:23;14.55;;;4.97;;
48516;SDS011;34310;51.904;4.256;2023-11-19T05:54:50;13.38;;;4.00;;
48516;SDS011;34310;51.904;4.256;2023-11-19T05:57:16;16.25;;;4.60;;
48516;SDS011;34310;51.904;4.256;2023-11-19T05:59:43;11.27;;;3.92;;
48516;SDS011;34310;51.904;4.256;2023-11-19T06:02:09;14.57;;;4.15;;
48516;SDS011;34310;51.904;4.256;2023-11-19T06:04:36;14.30;;;3.97;;
48516;SDS011;34310;51.904;4.256;2023-11-19T06:07:02;14.38;;;3.92;;
48516;SDS011;34310;51.904;4.256;2023-11-19T06:09:29;11.93;;;3.67;;
48516;SDS011;34310;51.904;4.256;2023-11-19T06:11:55;14.65;;;4.18;;
48516;SDS011;34310;51.904;4.256;2023-11-19T06:14:22;14.05;;;3.60;;
48516;SDS011;34310;51.904;4.256;2023-11-19T06:16:48;12.07;;;3.88;;
48516;SDS011;34310;51.904;4.256;2023-11-19T06:19:15;13.52;;;4.25;;
48516;SDS011;34310;51.904;4.256;2023-11-19T06:21:41;13.70;;;4.20;;
48516;SDS011;34310;51.904;4.256;2023-11-19T06:24:08;11.85;;;3.80;;
48516;SDS011;34310;51.904;4.256;2023-11-19T06:26:34;15.48;;;4.10;;
48516;SDS011;34310;51.904;4.256;2023-11-19T06:29:01;16.73;;;3.85;;
48516;SDS011;34310;51.904;4.256;2023-11-19T06:31:27;16.00;;;4.30;;
48516;SDS011;34310;51.904;4.256;2023-11-19T06:33:54;14.43;;;4.20;;
48516;SDS011;34310;51.904;4.256;2023-11-19T06:36:20;12.88;;;3.70;;
48516;SDS011;34310;51.904;4.256;2023-11-19T06:38:47;16.27;;;3.83;;
48516;SDS011;34310;51.904;4.256;2023-11-19T06:41:13;13.88;;;4.18;;
48516;SDS011;34310;51.904;4.256;2023-11-19T06:43:40;14.85;;;3.70;;
48516;SDS011;34310;51.904;4.256;2023-11-19T06:46:14;14.05;;;3.80;;
48516;SDS011;34310;51.904;4.256;2023-11-19T06:48:41;15.32;;;4.00;;
48516;SDS011;34310;51.904;4.256;2023-11-19T06:51:08;13.27;;;3.47;;
48516;SDS011;34310;51.904;4.256;2023-11-19T06:53:34;10.40;;;3.72;;
48516;SDS011;34310;51.904;4.256;2023-11-19T06:56:01;14.30;;;4.38;;
48516;SDS011;34310;51.904;4.256;2023-11-19T06:58:28;11.27;;;3.50;;
48516;SDS011;34310;51.904;4.256;2023-11-19T07:00:54;13.07;;;3.78;;
48516;SDS011;34310;51.904;4.256;2023-11-19T07:03:21;13.95;;;4.07;;
48516;SDS011;34310;51.904;4.256;2023-11-19T07:05:48;12.05;;;3.83;;
48516;SDS011;34310;51.904;4.256;2023-11-19T07:08:14;13.07;;;3.85;;
48516;SDS011;34310;51.904;4.256;2023-11-19T07:10:41;12.38;;;3.47;;
48516;SDS011;34310;51.904;4.256;2023-11-19T07:13:07;12.30;;;3.58;;
48516;SDS011;34310;51.904;4.256;2023-11-19T07:15:33;14.27;;;3.75;;
48516;SDS011;34310;51.904;4.256;2023-11-19T07:18:00;16.40;;;4.13;;
48516;SDS011;34310;51.904;4.256;2023-11-19T07:20:28;14.27;;;4.13;;
48516;SDS011;34310;51.904;4.256;2023-11-19T07:22:54;13.05;;;3.60;;
48516;SDS011;34310;51.904;4.256;2023-11-19T07:25:23;14.63;;;3.95;;
48516;SDS011;34310;51.904;4.256;2023-11-19T07:27:51;13.73;;;3.10;;
48516;SDS011;34310;51.904;4.256;2023-11-19T07:30:17;12.73;;;3.92;;
48516;SDS011;34310;51.904;4.256;2023-11-19T07:32:44;11.95;;;3.10;;
48516;SDS011;34310;51.904;4.256;2023-11-19T07:35:10;14.23;;;4.00;;
48516;SDS011;34310;51.904;4.256;2023-11-19T07:37:37;13.23;;;3.60;;
48516;SDS011;34310;51.904;4.256;2023-11-19T07:40:03;14.55;;;3.92;;
48516;SDS011;34310;51.904;4.256;2023-11-19T07:42:30;13.57;;;3.60;;
48516;SDS011;34310;51.904;4.256;2023-11-19T07:44:57;15.95;;;4.03;;
48516;SDS011;34310;51.904;4.256;2023-11-19T07:47:23;9.98;;;3.20;;
48516;SDS011;34310;51.904;4.256;2023-11-19T07:49:50;16.20;;;3.60;;
48516;SDS011;34310;51.904;4.256;2023-11-19T07:52:17;11.80;;;3.50;;
48516;SDS011;34310;51.904;4.256;2023-11-19T07:54:46;16.73;;;4.00;;
48516;SDS011;34310;51.904;4.256;2023-11-19T07:57:13;11.82;;;3.20;;
48516;SDS011;34310;51.904;4.256;2023-11-19T07:59:39;14.80;;;4.50;;
48516;SDS011;34310;51.904;4.256;2023-11-19T08:02:06;12.68;;;4.15;;
48516;SDS011;34310;51.904;4.256;2023-11-19T08:04:32;14.57;;;3.70;;
48516;SDS011;34310;51.904;4.256;2023-11-19T08:06:59;14.82;;;4.72;;
48516;SDS011;34310;51.904;4.256;2023-11-19T08:09:25;14.18;;;4.68;;
48516;SDS011;34310;51.904;4.256;2023-11-19T08:11:52;20.48;;;5.53;;
48516;SDS011;34310;51.904;4.256;2023-11-19T08:14:18;14.40;;;5.07;;
48516;SDS011;34310;51.904;4.256;2023-11-19T08:16:45;13.25;;;4.30;;
48516;SDS011;34310;51.904;4.256;2023-11-19T08:19:11;17.25;;;5.85;;
48516;SDS011;34310;51.904;4.256;2023-11-19T08:21:37;14.63;;;5.40;;
48516;SDS011;34310;51.904;4.256;2023-11-19T08:24:04;19.52;;;5.57;;
48516;SDS011;34310;51.904;4.256;2023-11-19T08:26:31;16.33;;;6.22;;
48516;SDS011;34310;51.904;4.256;2023-11-19T08:28:57;18.10;;;6.20;;
48516;SDS011;34310;51.904;4.256;2023-11-19T08:31:24;16.27;;;5.78;;
48516;SDS011;34310;51.904;4.256;2023-11-19T08:33:51;15.73;;;5.43;;
48516;SDS011;34310;51.904;4.256;2023-11-19T08:36:17;15.35;;;5.75;;
48516;SDS011;34310;51.904;4.256;2023-11-19T08:38:45;16.88;;;6.07;;
48516;SDS011;34310;51.904;4.256;2023-11-19T08:41:12;18.67;;;6.65;;
48516;SDS011;34310;51.904;4.256;2023-11-19T08:43:38;20.23;;;8.27;;
48516;SDS011;34310;51.904;4.256;2023-11-19T08:46:09;23.63;;;8.45;;
48516;SDS011;34310;51.904;4.256;2023-11-19T08:48:36;20.33;;;7.88;;
48516;SDS011;34310;51.904;4.256;2023-11-19T08:51:03;20.23;;;7.72;;
48516;SDS011;34310;51.904;4.256;2023-11-19T08:53:29;21.98;;;8.68;;
48516;SDS011;34310;51.904;4.256;2023-11-19T08:55:56;20.35;;;7.68;;
48516;SDS011;34310;51.904;4.256;2023-11-19T08:58:22;20.85;;;7.75;;
48516;SDS011;34310;51.904;4.256;2023-11-19T09:00:49;22.20;;;8.27;;
48516;SDS011;34310;51.904;4.256;2023-11-19T09:03:15;19.75;;;8.18;;
48516;SDS011;34310;51.904;4.256;2023-11-19T09:05:42;22.45;;;8.82;;
48516;SDS011;34310;51.904;4.256;2023-11-19T09:08:09;21.17;;;9.10;;
48516;SDS011;34310;51.904;4.256;2023-11-19T09:10:35;22.58;;;8.82;;
48516;SDS011;34310;51.904;4.256;2023-11-19T09:13:02;22.42;;;8.55;;
48516;SDS011;34310;51.904;4.256;2023-11-19T09:15:28;22.83;;;8.60;;
48516;SDS011;34310;51.904;4.256;2023-11-19T09:17:55;21.63;;;8.05;;
48516;SDS011;34310;51.904;4.256;2023-11-19T09:20:21;25.48;;;7.57;;
48516;SDS011;34310;51.904;4.256;2023-11-19T09:22:48;28.45;;;8.25;;
48516;SDS011;34310;51.904;4.256;2023-11-19T09:25:14;19.67;;;7.65;;
48516;SDS011;34310;51.904;4.256;2023-11-19T09:27:41;24.30;;;8.50;;
48516;SDS011;34310;51.904;4.256;2023-11-19T09:30:07;22.10;;;8.43;;
48516;SDS011;34310;51.904;4.256;2023-11-19T09:32:34;25.60;;;9.52;;
48516;SDS011;34310;51.904;4.256;2023-11-19T09:35:01;22.65;;;9.27;;
48516;SDS011;34310;51.904;4.256;2023-11-19T09:37:28;24.05;;;8.43;;
48516;SDS011;34310;51.904;4.256;2023-11-19T09:39:54;23.65;;;9.00;;
48516;SDS011;34310;51.904;4.256;2023-11-19T09:42:21;21.55;;;9.63;;
48516;SDS011;34310;51.904;4.256;2023-11-19T09:44:49;24.85;;;9.20;;
48516;SDS011;34310;51.904;4.256;2023-11-19T09:47:16;20.42;;;9.02;;
48516;SDS011;34310;51.904;4.256;2023-11-19T09:49:43;23.88;;;9.40;;
48516;SDS011;34310;51.904;4.256;2023-11-19T09:52:10;26.75;;;9.40;;
48516;SDS011;34310;51.904;4.256;2023-11-19T09:54:36;24.45;;;10.40;;
48516;SDS011;34310;51.904;4.256;2023-11-19T09:57:03;23.45;;;10.23;;
48516;SDS011;34310;51.904;4.256;2023-11-19T09:59:30;24.92;;;10.23;;
48516;SDS011;34310;51.904;4.256;2023-11-19T10:01:57;26.75;;;9.80;;
48516;SDS011;34310;51.904;4.256;2023-11-19T10:04:25;27.25;;;11.30;;
48516;SDS011;34310;51.904;4.256;2023-11-19T10:06:56;28.30;;;10.63;;
48516;SDS011;34310;51.904;4.256;2023-11-19T10:09:23;24.33;;;11.07;;
48516;SDS011;34310;51.904;4.256;2023-11-19T10:11:49;23.42;;;10.23;;
48516;SDS011;34310;51.904;4.256;2023-11-19T10:14:15;27.50;;;9.98;;
48516;SDS011;34310;51.904;4.256;2023-11-19T10:16:43;23.77;;;9.20;;
48516;SDS011;34310;51.904;4.256;2023-11-19T10:19:12;26.45;;;9.85;;
48516;SDS011;34310;51.904;4.256;2023-11-19T10:21:45;21.33;;;9.60;;
48516;SDS011;34310;51.904;4.256;2023-11-19T10:24:12;26.75;;;9.65;;
48516;SDS011;34310;51.904;4.256;2023-11-19T10:26:56;21.52;;;9.10;;
48516;SDS011;34310;51.904;4.256;2023-11-19T10:29:23;23.77;;;9.30;;
48516;SDS011;34310;51.904;4.256;2023-11-19T10:31:56;24.40;;;9.88;;
48516;SDS011;34310;51.904;4.256;2023-11-19T10:34:43;20.42;;;9.30;;
48516;SDS011;34310;51.904;4.256;2023-11-19T10:37:16;28.17;;;9.75;;
48516;SDS011;34310;51.904;4.256;2023-11-19T10:39:54;24.35;;;9.50;;
48516;SDS011;34310;51.904;4.256;2023-11-19T10:42:21;24.48;;;9.80;;
48516;SDS011;34310;51.904;4.256;2023-11-19T10:44:47;27.70;;;10.68;;
48516;SDS011;34310;51.904;4.256;2023-11-19T10:47:14;25.90;;;10.30;;
48516;SDS011;34310;51.904;4.256;2023-11-19T10:49:41;27.25;;;10.38;;
48516;SDS011;34310;51.904;4.256;2023-11-19T10:52:08;26.95;;;10.20;;
48516;SDS011;34310;51.904;4.256;2023-11-19T10:54:35;25.40;;;9.88;;
48516;SDS011;34310;51.904;4.256;2023-11-19T10:57:03;28.23;;;10.10;;
48516;SDS011;34310;51.904;4.256;2023-11-19T10:59:33;23.45;;;8.88;;
48516;SDS011;34310;51.904;4.256;2023-11-19T11:02:00;24.65;;;9.73;;
48516;SDS011;34310;51.904;4.256;2023-11-19T11:04:29;25.98;;;10.90;;
48516;SDS011;34310;51.904;4.256;2023-11-19T11:06:59;25.55;;;9.48;;
48516;SDS011;34310;51.904;4.256;2023-11-19T11:09:27;21.90;;;9.60;;
48516;SDS011;34310;51.904;4.256;2023-11-19T11:11:54;24.85;;;9.27;;
48516;SDS011;34310;51.904;4.256;2023-11-19T11:14:21;23.67;;;9.40;;
48516;SDS011;34310;51.904;4.256;2023-11-19T11:16:49;21.27;;;8.25;;
48516;SDS011;34310;51.904;4.256;2023-11-19T11:19:17;23.77;;;8.80;;
48516;SDS011;34310;51.904;4.256;2023-11-19T11:21:44;20.10;;;8.95;;
48516;SDS011;34310;51.904;4.256;2023-11-19T11:38:04;22.52;;;9.02;;
48516;SDS011;34310;51.904;4.256;2023-11-19T11:40:33;21.85;;;8.88;;
48516;SDS011;34310;51.904;4.256;2023-11-19T11:43:01;21.00;;;7.75;;
48516;SDS011;34310;51.904;4.256;2023-11-19T11:45:40;23.77;;;8.77;;
48516;SDS011;34310;51.904;4.256;2023-11-19T11:48:10;23.73;;;8.93;;
48516;SDS011;34310;51.904;4.256;2023-11-19T11:50:50;26.08;;;9.00;;
48516;SDS011;34310;51.904;4.256;2023-11-19T11:53:19;22.33;;;8.68;;
48516;SDS011;34310;51.904;4.256;2023-11-19T11:58:20;21.23;;;8.38;;
48516;SDS011;34310;51.904;4.256;2023-11-19T12:00:56;22.90;;;8.73;;
48516;SDS011;34310;51.904;4.256;2023-11-19T12:03:26;25.42;;;8.43;;
48516;SDS011;34310;51.904;4.256;2023-11-19T12:05:54;21.00;;;9.30;;
48516;SDS011;34310;51.904;4.256;2023-11-19T12:08:24;21.58;;;8.55;;
48516;SDS011;34310;51.904;4.256;2023-11-19T12:10:56;20.13;;;9.23;;
48516;SDS011;34310;51.904;4.256;2023-11-19T12:13:24;21.13;;;9.23;;
48516;SDS011;34310;51.904;4.256;2023-11-19T12:18:26;21.38;;;8.98;;
48516;SDS011;34310;51.904;4.256;2023-11-19T12:20:54;22.38;;;9.07;;
48516;SDS011;34310;51.904;4.256;2023-11-19T12:23:21;21.48;;;8.82;;
48516;SDS011;34310;51.904;4.256;2023-11-19T12:25:48;25.60;;;9.02;;
48516;SDS011;34310;51.904;4.256;2023-11-19T12:28:15;22.02;;;8.85;;
48516;SDS011;34310;51.904;4.256;2023-11-19T12:30:42;23.73;;;8.43;;
48516;SDS011;34310;51.904;4.256;2023-11-19T12:33:10;22.02;;;9.18;;
48516;SDS011;34310;51.904;4.256;2023-11-19T12:35:41;22.63;;;8.85;;
48516;SDS011;34310;51.904;4.256;2023-11-19T12:38:17;25.42;;;9.23;;
48516;SDS011;34310;51.904;4.256;2023-11-19T12:41:04;22.15;;;9.32;;
48516;SDS011;34310;51.904;4.256;2023-11-19T12:43:34;20.65;;;8.98;;
48516;SDS011;34310;51.904;4.256;2023-11-19T12:46:22;26.80;;;9.27;;
48516;SDS011;34310;51.904;4.256;2023-11-19T12:48:50;22.67;;;9.63;;
48516;SDS011;34310;51.904;4.256;2023-11-19T12:51:18;20.52;;;9.23;;
48516;SDS011;34310;51.904;4.256;2023-11-19T12:53:48;26.25;;;9.82;;
48516;SDS011;34310;51.904;4.256;2023-11-19T12:56:15;26.58;;;9.50;;
48516;SDS011;34310;51.904;4.256;2023-11-19T12:58:42;23.10;;;9.25;;
48516;SDS011;34310;51.904;4.256;2023-11-19T13:01:09;25.85;;;10.48;;
48516;SDS011;34310;51.904;4.256;2023-11-19T13:03:36;29.05;;;10.40;;
48516;SDS011;34310;51.904;4.256;2023-11-19T13:06:04;24.25;;;9.73;;
48516;SDS011;34310;51.904;4.256;2023-11-19T13:08:38;29.05;;;10.38;;
48516;SDS011;34310;51.904;4.256;2023-11-19T13:11:05;20.77;;;10.02;;
48516;SDS011;34310;51.904;4.256;2023-11-19T13:13:32;28.67;;;10.23;;
48516;SDS011;34310;51.904;4.256;2023-11-19T13:16:03;24.08;;;10.07;;
48516;SDS011;34310;51.904;4.256;2023-11-19T13:18:30;23.58;;;10.75;;
48516;SDS011;34310;51.904;4.256;2023-11-19T13:20:59;28.30;;;10.60;;
48516;SDS011;34310;51.904;4.256;2023-11-19T13:23:26;23.77;;;10.73;;
48516;SDS011;34310;51.904;4.256;2023-11-19T13:25:52;25.42;;;10.45;;
48516;SDS011;34310;51.904;4.256;2023-11-19T13:28:19;26.33;;;10.05;;
48516;SDS011;34310;51.904;4.256;2023-11-19T13:30:45;24.88;;;10.70;;
48516;SDS011;34310;51.904;4.256;2023-11-19T13:33:12;26.92;;;10.52;;
48516;SDS011;34310;51.904;4.256;2023-11-19T13:35:39;25.40;;;10.98;;
48516;SDS011;34310;51.904;4.256;2023-11-19T13:38:05;22.77;;;10.43;;
48516;SDS011;34310;51.904;4.256;2023-11-19T13:40:32;25.73;;;10.77;;
48516;SDS011;34310;51.904;4.256;2023-11-19T13:42:58;26.77;;;10.95;;
48516;SDS011;34310;51.904;4.256;2023-11-19T13:45:25;25.67;;;10.98;;
48516;SDS011;34310;51.904;4.256;2023-11-19T13:47:51;22.67;;;10.05;;
48516;SDS011;34310;51.904;4.256;2023-11-19T13:50:18;24.48;;;11.10;;
48516;SDS011;34310;51.904;4.256;2023-11-19T13:52:44;25.90;;;11.90;;
48516;SDS011;34310;51.904;4.256;2023-11-19T13:55:11;24.42;;;11.00;;
48516;SDS011;34310;51.904;4.256;2023-11-19T13:57:38;26.27;;;11.15;;
48516;SDS011;34310;51.904;4.256;2023-11-19T14:00:12;25.67;;;11.23;;
48516;SDS011;34310;51.904;4.256;2023-11-19T14:02:40;24.63;;;10.90;;
48516;SDS011;34310;51.904;4.256;2023-11-19T14:05:07;26.45;;;11.40;;
48516;SDS011;34310;51.904;4.256;2023-11-19T14:07:34;26.35;;;11.77;;
48516;SDS011;34310;51.904;4.256;2023-11-19T14:10:01;24.05;;;10.80;;
48516;SDS011;34310;51.904;4.256;2023-11-19T14:12:27;25.83;;;11.05;;
48516;SDS011;34310;51.904;4.256;2023-11-19T14:14:54;24.73;;;11.98;;
48516;SDS011;34310;51.904;4.256;2023-11-19T14:17:20;30.42;;;13.20;;
48516;SDS011;34310;51.904;4.256;2023-11-19T14:19:47;27.75;;;11.90;;
48516;SDS011;34310;51.904;4.256;2023-11-19T14:22:13;28.48;;;13.00;;
48516;SDS011;34310;51.904;4.256;2023-11-19T14:24:40;26.35;;;11.30;;
48516;SDS011;34310;51.904;4.256;2023-11-19T14:27:06;28.17;;;11.38;;
48516;SDS011;34310;51.904;4.256;2023-11-19T14:29:33;26.30;;;12.02;;
48516;SDS011;34310;51.904;4.256;2023-11-19T14:32:00;27.00;;;12.10;;
48516;SDS011;34310;51.904;4.256;2023-11-19T14:34:27;25.40;;;11.75;;
48516;SDS011;34310;51.904;4.256;2023-11-19T14:36:53;28.85;;;12.00;;
48516;SDS011;34310;51.904;4.256;2023-11-19T14:39:20;28.98;;;11.70;;
48516;SDS011;34310;51.904;4.256;2023-11-19T14:41:46;28.80;;;11.02;;
48516;SDS011;34310;51.904;4.256;2023-11-19T14:44:13;27.58;;;11.20;;
48516;SDS011;34310;51.904;4.256;2023-11-19T14:46:39;28.58;;;11.52;;
48516;SDS011;34310;51.904;4.256;2023-11-19T14:49:06;25.60;;;10.18;;
48516;SDS011;34310;51.904;4.256;2023-11-19T14:51:35;22.23;;;10.52;;
48516;SDS011;34310;51.904;4.256;2023-11-19T14:54:02;24.63;;;10.52;;